.
WxDataArchive / Data Records for 2010-01-23
2010-01-22 January 2010 2010-01-24

Data Records for Saturday, 23 January 2010

Time	Temp	Chill	HIndex	Humid	Dewpt	 Wind 	HiWind	WindDir	Rain 	Barom 
-----	----	-----	------	-----	-----	------	------	-------	-----	----- 
00:00	32.7	32.7	32.7	88	29.5	2	6	90	0.00	30.048 
00:05	32.7	32.7	32.7	88	29.5	1	4	90	0.00	30.048 
00:10	32.5	32.5	32.5	88	29.3	1	3	90	0.00	30.048 
00:15	32.5	32.5	32.5	88	29.3	1	3	90	0.00	30.056 
00:20	32.4	32.4	32.4	88	29.3	0	3	90	0.00	30.056 
00:25	32.4	32.4	32.4	88	29.3	0	2	90	0.00	30.056 
00:30	32.4	32.4	32.4	88	29.3	0	1	90	0.00	30.070 
00:35	32.4	32.4	32.4	88	29.3	0	1	90	0.00	30.070 
00:40	32.4	32.4	32.4	88	29.3	0	0	---	0.00	30.070 
00:45	32.5	32.5	32.5	88	29.3	0	2	90	0.00	30.076 
00:50	32.5	32.5	32.5	88	29.3	0	1	90	0.00	30.076 
00:55	32.7	32.7	32.7	88	29.5	0	1	90	0.00	30.076 
01:00	32.7	32.7	32.7	88	29.5	1	2	90	0.00	30.075 
01:05	32.8	32.8	32.8	88	29.6	0	2	90	0.00	30.075 
01:10	32.8	32.8	32.8	88	29.6	0	1	90	0.00	30.075 
01:15	32.8	32.8	32.8	88	29.6	0	1	90	0.00	30.078 
01:20	32.8	32.8	32.8	88	29.6	1	3	90	0.00	30.078 
01:25	32.8	32.8	32.8	88	29.6	0	1	90	0.00	30.078 
01:30	32.8	32.8	32.8	88	29.6	0	2	90	0.00	30.072 
01:35	32.8	32.8	32.8	88	29.6	1	3	90	0.00	30.072 
01:40	32.8	32.8	32.8	88	29.6	1	3	90	0.00	30.072 
01:45	32.8	32.8	32.8	88	29.6	1	3	90	0.00	30.065 
01:50	32.8	32.8	32.8	88	29.6	1	2	112	0.00	30.065 
01:55	32.8	32.8	32.8	88	29.6	2	5	112	0.00	30.065 
02:00	32.8	32.8	32.8	88	29.6	1	3	112	0.00	30.063 
02:05	32.8	32.8	32.8	88	29.6	1	4	112	0.00	30.063 
02:10	32.8	32.8	32.8	88	29.6	2	4	112	0.00	30.063 
02:15	32.8	32.8	32.8	88	29.6	2	4	112	0.00	30.053 
02:20	32.8	32.8	32.8	88	29.6	2	5	90	0.00	30.053 
02:25	32.8	32.8	32.8	88	29.6	2	4	112	0.00	30.053 
02:30	32.7	32.7	32.7	88	29.5	1	4	112	0.00	30.053 
02:35	32.7	32.7	32.7	88	29.5	3	6	90	0.00	30.053 
02:40	32.7	32.7	32.7	89	29.8	2	4	90	0.00	30.053 
02:45	32.7	32.7	32.7	89	29.8	1	3	90	0.00	30.066 
02:50	32.7	32.7	32.7	89	29.8	2	4	90	0.00	30.066 
02:55	32.7	32.7	32.7	89	29.8	1	4	90	0.00	30.066 
03:00	32.7	32.7	32.7	89	29.8	1	3	90	0.00	30.068 
03:05	32.7	32.7	32.7	89	29.8	1	4	90	0.00	30.068 
03:10	32.7	32.7	32.7	89	29.8	1	4	112	0.00	30.068 
03:15	32.7	32.7	32.7	89	29.8	2	4	90	0.00	30.064 
03:20	32.7	32.7	32.7	89	29.8	2	4	68	0.00	30.064 
03:25	32.7	32.7	32.7	89	29.8	2	7	90	0.00	30.064 
03:30	32.7	32.7	32.7	89	29.8	2	4	90	0.00	30.065 
03:35	32.7	32.7	32.7	89	29.8	2	5	90	0.00	30.065 
03:40	32.8	32.8	32.8	89	29.9	3	7	90	0.00	30.065 
03:45	32.8	32.8	32.8	89	29.9	2	6	90	0.00	30.064 
03:50	32.8	32.8	32.8	89	29.9	2	4	112	0.00	30.064 
03:55	32.8	32.8	32.8	89	29.9	2	4	90	0.00	30.064 
04:00	32.7	32.7	32.7	89	29.8	1	3	68	0.00	30.062 
04:05	32.7	32.7	32.7	90	30.1	2	5	112	0.00	30.062 
04:10	32.7	32.7	32.7	90	30.1	2	5	90	0.00	30.062 
04:15	32.8	32.8	32.8	90	30.2	3	6	90	0.00	30.057 
04:20	32.8	32.8	32.8	90	30.2	3	6	112	0.00	30.057 
04:25	32.8	32.8	32.8	90	30.2	3	7	112	0.00	30.057 
04:30	32.8	29.0	32.8	90	30.2	4	9	90	0.00	30.052 
04:35	32.8	32.8	32.8	90	30.2	2	6	112	0.00	30.052 
04:40	32.8	32.8	32.8	90	30.2	3	7	90	0.00	30.052 
04:45	32.8	32.8	32.8	90	30.2	3	6	112	0.00	30.056 
04:50	32.7	32.7	32.7	91	30.4	3	6	112	0.00	30.056 
04:55	32.7	32.7	32.7	91	30.4	3	6	112	0.00	30.056 
05:00	32.7	32.7	32.7	91	30.4	3	6	90	0.00	30.059 
05:05	32.7	32.7	32.7	91	30.4	3	7	112	0.00	30.059 
05:10	32.7	32.7	32.7	91	30.4	3	7	90	0.00	30.059 
05:15	32.8	32.8	32.8	91	30.5	3	6	112	0.00	30.067 
05:20	32.8	32.8	32.8	91	30.5	2	4	112	0.00	30.067 
05:25	32.8	32.8	32.8	91	30.5	2	6	112	0.00	30.067 
05:30	32.8	32.8	32.8	91	30.5	2	6	90	0.00	30.066 
05:35	32.8	32.8	32.8	91	30.5	2	4	90	0.00	30.066 
05:40	32.8	32.8	32.8	92	30.7	3	6	90	0.00	30.066 
05:45	32.8	32.8	32.8	92	30.7	3	5	90	0.00	30.054 
05:50	32.8	32.8	32.8	92	30.7	3	6	68	0.00	30.054 
05:55	32.8	32.8	32.8	92	30.7	2	5	90	0.00	30.054 
06:00	32.8	32.8	32.8	92	30.7	1	5	90	0.00	30.059 
06:05	32.8	32.8	32.8	92	30.7	2	5	90	0.00	30.059 
06:10	32.8	32.8	32.8	92	30.7	2	5	112	0.00	30.059 
06:15	32.8	32.8	32.8	92	30.7	1	4	112	0.00	30.065 
06:20	32.8	32.8	32.8	92	30.7	2	5	90	0.00	30.065 
06:25	32.8	32.8	32.8	92	30.7	2	5	112	0.00	30.065 
06:30	32.8	32.8	32.8	92	30.7	3	5	90	0.00	30.057 
06:35	32.8	32.8	32.8	92	30.7	3	6	90	0.00	30.057 
06:40	32.8	32.8	32.8	92	30.7	2	6	112	0.00	30.057 
06:45	32.7	32.7	32.7	92	30.6	3	5	90	0.00	30.051 
06:50	32.7	32.7	32.7	92	30.6	2	6	90	0.00	30.051 
06:55	32.7	32.7	32.7	93	30.9	2	5	90	0.00	30.051 
07:00	32.7	32.7	32.7	93	30.9	2	5	112	0.00	30.049 
07:05	32.7	32.7	32.7	93	30.9	2	5	90	0.00	30.049 
07:10	32.8	32.8	32.8	93	31.0	3	6	90	0.00	30.049 
07:15	32.8	32.8	32.8	93	31.0	3	5	90	0.00	30.049 
07:20	32.8	32.8	32.8	93	31.0	3	6	112	0.00	30.049 
07:25	32.8	32.8	32.8	93	31.0	3	6	90	0.00	30.049 
07:30	32.8	32.8	32.8	93	31.0	3	10	112	0.00	30.037 
07:35	32.8	32.8	32.8	93	31.0	3	7	90	0.00	30.037 
07:40	32.8	32.8	32.8	93	31.0	3	7	90	0.00	30.037 
07:45	32.8	29.0	32.8	94	31.3	4	9	90	0.00	30.039 
07:50	32.8	29.0	32.8	94	31.3	4	6	90	0.00	30.039 
07:55	32.8	32.8	32.8	94	31.3	3	7	90	0.00	30.039 
08:00	32.8	32.8	32.8	94	31.3	2	4	90	0.00	30.041 
08:05	32.9	32.9	32.9	94	31.4	2	5	112	0.00	30.041 
08:10	32.9	32.9	32.9	94	31.4	3	7	90	0.00	30.041 
08:15	33.1	33.1	33.1	94	31.6	3	7	90	0.00	30.047 
08:20	33.1	33.1	33.1	94	31.6	3	6	90	0.00	30.047 
08:25	33.1	33.1	33.1	94	31.6	3	6	112	0.00	30.047 
08:30	33.1	33.1	33.1	94	31.6	3	7	90	0.00	30.045 
08:35	33.1	33.1	33.1	94	31.6	3	7	90	0.00	30.045 
08:40	33.2	33.2	33.2	94	31.7	3	7	112	0.00	30.045 
08:45	33.2	33.2	33.2	95	31.9	2	4	90	0.00	30.052 
08:50	33.2	33.2	33.2	95	31.9	3	6	90	0.00	30.052 
08:55	33.4	33.4	33.4	95	32.1	2	7	90	0.00	30.052 
09:00	33.4	33.4	33.4	95	32.1	2	5	90	0.00	30.057 
09:05	33.4	33.4	33.4	95	32.1	2	4	112	0.00	30.057 
09:10	33.4	33.4	33.4	95	32.1	2	5	112	0.00	30.057 
09:15	33.4	33.4	33.4	95	32.1	2	4	90	0.00	30.052 
09:20	33.4	33.4	33.4	95	32.1	3	5	112	0.00	30.052 
09:25	33.5	33.5	33.5	95	32.2	3	7	90	0.00	30.052 
09:30	33.5	33.5	33.5	95	32.2	3	5	90	0.00	30.050 
09:35	33.5	33.5	33.5	95	32.2	2	6	90	0.00	30.050 
09:40	33.7	33.7	33.7	95	32.4	2	5	90	0.00	30.050 
09:45	33.7	33.7	33.7	95	32.4	2	4	112	0.00	30.053 
09:50	33.7	33.7	33.7	95	32.4	2	4	90	0.00	30.053 
09:55	33.8	33.8	33.8	95	32.5	3	5	90	0.00	30.053 
10:00	33.8	33.8	33.8	95	32.5	2	5	90	0.00	30.052 
10:05	33.8	33.8	33.8	95	32.5	1	4	112	0.00	30.052 
10:10	34.0	34.0	34.0	95	32.7	1	4	90	0.00	30.052 
10:15	34.0	34.0	34.0	95	32.7	2	4	90	0.00	30.060 
10:20	34.0	34.0	34.0	95	32.7	1	4	90	0.00	30.060 
10:25	34.1	34.1	34.1	95	32.8	1	3	90	0.00	30.060 
10:30	34.1	34.1	34.1	95	32.8	1	3	90	0.00	30.056 
10:35	34.3	34.3	34.3	95	33.0	1	2	112	0.00	30.056 
10:40	34.3	34.3	34.3	95	33.0	1	2	112	0.00	30.056 
10:45	34.4	34.4	34.4	95	33.1	1	3	112	0.00	30.052 
10:50	34.6	34.6	34.6	95	33.3	1	3	90	0.00	30.052 
10:55	34.7	34.7	34.7	95	33.4	1	4	90	0.00	30.052 
11:00	34.7	34.7	34.7	95	33.4	2	5	90	0.00	30.051 
11:05	34.7	34.7	34.7	95	33.4	2	4	112	0.00	30.051 
11:10	34.7	34.7	34.7	95	33.4	2	4	90	0.00	30.051 
11:15	34.9	34.9	34.9	95	33.6	2	4	90	0.00	30.039 
11:20	34.9	34.9	34.9	95	33.6	2	5	90	0.00	30.039 
11:25	35.0	35.0	35.0	95	33.7	1	4	90	0.00	30.039 
11:30	35.0	35.0	35.0	95	33.7	2	6	90	0.00	30.023 
11:35	35.2	35.2	35.2	95	33.9	3	6	112	0.00	30.023 
11:40	35.2	35.2	35.2	95	33.9	2	9	112	0.00	30.023 
11:45	35.3	35.3	35.3	95	34.0	3	6	112	0.00	30.013 
11:50	35.5	35.5	35.5	95	34.2	3	6	112	0.00	30.013 
11:55	35.5	35.5	35.5	95	34.2	2	4	112	0.00	30.013 
12:00	35.6	35.6	35.6	95	34.3	2	4	112	0.00	30.009 
12:05	35.8	35.8	35.8	95	34.5	2	7	112	0.00	30.009 
12:10	35.9	35.9	35.9	95	34.6	2	5	112	0.00	30.009 
12:15	36.0	36.0	36.0	95	34.7	3	6	90	0.00	30.003 
12:20	36.2	36.2	36.2	95	34.9	2	4	90	0.00	30.003 
12:25	36.3	36.3	36.3	95	35.0	2	4	90	0.00	30.003 
12:30	36.3	36.3	36.3	95	35.0	3	6	112	0.00	29.994 
12:35	36.5	36.5	36.5	95	35.2	2	4	90	0.00	29.994 
12:40	36.5	36.5	36.5	94	34.9	3	6	90	0.00	29.994 
12:45	36.5	36.5	36.5	94	34.9	3	5	90	0.00	29.982 
12:50	36.6	36.6	36.6	94	35.0	3	6	90	0.00	29.982 
12:55	36.8	36.8	36.8	94	35.2	2	5	90	0.00	29.982 
13:00	36.9	36.9	36.9	94	35.3	3	7	90	0.00	29.970 
13:05	36.9	36.9	36.9	94	35.3	3	6	112	0.00	29.970 
13:10	37.0	37.0	37.0	94	35.4	3	8	90	0.00	29.970 
13:15	37.2	37.2	37.2	93	35.4	3	6	90	0.00	29.954 
13:20	37.2	37.2	37.2	93	35.4	3	6	112	0.00	29.954 
13:25	37.3	34.2	37.3	93	35.5	4	6	90	0.00	29.954 
13:30	37.5	37.5	37.5	93	35.7	3	7	90	0.00	29.938 
13:35	37.6	34.5	37.6	93	35.8	4	7	112	0.00	29.938 
13:40	37.6	34.5	37.6	93	35.8	4	7	90	0.00	29.938 
13:45	37.8	37.8	37.8	93	36.0	2	4	112	0.00	29.938 
13:50	37.9	37.9	37.9	93	36.1	2	5	112	0.00	29.938 
13:55	38.0	38.0	38.0	93	36.2	2	5	90	0.00	29.938 
14:00	38.2	38.2	38.2	92	36.1	3	6	112	0.00	29.928 
14:05	38.2	38.2	38.2	92	36.1	3	6	90	0.00	29.928 
14:10	38.3	38.3	38.3	92	36.2	3	5	90	0.00	29.928 
14:15	38.3	38.3	38.3	92	36.2	3	7	68	0.00	29.922 
14:20	38.3	38.3	38.3	92	36.2	3	6	90	0.00	29.922 
14:25	38.3	38.3	38.3	92	36.2	2	5	90	0.00	29.922 
14:30	38.5	38.5	38.5	92	36.4	2	5	112	0.00	29.923 
14:35	38.5	38.5	38.5	92	36.4	3	6	90	0.00	29.923 
14:40	38.5	38.5	38.5	92	36.4	3	6	112	0.00	29.923 
14:45	38.5	38.5	38.5	92	36.4	3	5	112	0.00	29.917 
14:50	38.5	38.5	38.5	92	36.4	3	5	112	0.00	29.917 
14:55	38.5	38.5	38.5	92	36.4	3	7	112	0.00	29.917 
15:00	38.5	38.5	38.5	92	36.4	3	6	112	0.00	29.904 
15:05	38.5	38.5	38.5	92	36.4	3	6	112	0.00	29.904 
15:10	38.6	38.6	38.6	92	36.5	3	6	90	0.00	29.904 
15:15	38.6	38.6	38.6	92	36.5	3	7	90	0.00	29.895 
15:20	38.6	38.6	38.6	92	36.5	2	7	90	0.00	29.895 
15:25	38.8	38.8	38.8	92	36.7	3	7	90	0.00	29.895 
15:30	38.8	38.8	38.8	92	36.7	2	4	112	0.00	29.887 
15:35	38.8	38.8	38.8	92	36.7	2	5	112	0.00	29.887 
15:40	38.8	38.8	38.8	92	36.7	3	7	90	0.00	29.887 
15:45	38.8	38.8	38.8	92	36.7	3	6	90	0.00	29.873 
15:50	38.9	38.9	38.9	92	36.8	3	6	90	0.00	29.873 
15:55	38.9	38.9	38.9	93	37.1	3	9	90	0.00	29.873 
16:00	39.1	39.1	39.1	93	37.2	2	4	112	0.00	29.877 
16:05	39.1	39.1	39.1	93	37.2	2	4	135	0.00	29.877 
16:10	39.2	39.2	39.2	93	37.3	3	8	112	0.00	29.877 
16:15	39.2	39.2	39.2	93	37.3	2	6	90	0.00	29.868 
16:20	39.3	39.3	39.3	93	37.4	3	7	112	0.00	29.868 
16:25	39.3	39.3	39.3	93	37.4	3	5	112	0.00	29.868 
16:30	39.3	39.3	39.3	93	37.4	2	5	112	0.00	29.869 
16:35	39.3	39.3	39.3	93	37.4	2	5	112	0.00	29.869 
16:40	39.3	39.3	39.3	93	37.4	3	5	90	0.00	29.869 
16:45	39.5	39.5	39.5	93	37.6	2	5	90	0.00	29.858 
16:50	39.5	39.5	39.5	93	37.6	2	5	112	0.00	29.858 
16:55	39.5	39.5	39.5	93	37.6	2	5	112	0.00	29.858 
17:00	39.5	39.5	39.5	93	37.6	2	7	135	0.00	29.871 
17:05	39.5	39.5	39.5	93	37.6	2	4	112	0.00	29.871 
17:10	39.5	39.5	39.5	93	37.6	2	5	112	0.00	29.871 
17:15	39.5	39.5	39.5	93	37.6	3	5	90	0.00	29.856 
17:20	39.5	39.5	39.5	93	37.6	2	5	112	0.00	29.856 
17:25	39.5	39.5	39.5	93	37.6	2	4	90	0.00	29.856 
17:30	39.5	39.5	39.5	93	37.6	3	5	90	0.00	29.857 
17:35	39.5	39.5	39.5	93	37.6	2	3	112	0.00	29.857 
17:40	39.6	39.6	39.6	93	37.7	1	3	90	0.00	29.857 
17:45	39.6	39.6	39.6	93	37.7	2	4	90	0.00	29.859 
17:50	39.6	39.6	39.6	93	37.7	2	5	90	0.00	29.859 
17:55	39.8	39.8	39.8	93	37.9	2	4	112	0.00	29.859 
18:00	39.9	39.9	39.9	93	38.0	3	7	90	0.00	29.852 
18:05	39.9	39.9	39.9	93	38.0	2	5	135	0.00	29.852 
18:10	39.9	39.9	39.9	93	38.0	2	5	112	0.00	29.852 
18:15	40.1	40.1	40.1	93	38.2	2	4	112	0.00	29.853 
18:20	40.1	40.1	40.1	93	38.2	2	5	112	0.00	29.853 
18:25	40.1	40.1	40.1	93	38.2	3	5	90	0.00	29.853 
18:30	40.1	40.1	40.1	93	38.2	3	6	90	0.00	29.851 
18:35	40.1	40.1	40.1	93	38.2	3	6	90	0.00	29.851 
18:40	40.1	40.1	40.1	93	38.2	3	5	90	0.00	29.851 
18:45	40.1	40.1	40.1	93	38.2	2	5	112	0.00	29.850 
18:50	40.1	40.1	40.1	93	38.2	1	4	112	0.00	29.850 
18:55	39.9	39.9	39.9	93	38.0	2	4	112	0.00	29.850 
19:00	39.9	39.9	39.9	93	38.0	2	4	112	0.00	29.846 
19:05	39.9	39.9	39.9	93	38.0	2	4	112	0.00	29.846 
19:10	39.9	39.9	39.9	93	38.0	2	5	112	0.00	29.846 
19:15	39.9	39.9	39.9	93	38.0	3	6	90	0.00	29.843 
19:20	39.9	39.9	39.9	93	38.0	3	6	90	0.00	29.843 
19:25	39.9	39.9	39.9	93	38.0	3	9	112	0.00	29.843 
19:30	39.9	39.9	39.9	93	38.0	3	6	112	0.00	29.833 
19:35	39.9	37.2	39.9	93	38.0	4	7	112	0.00	29.833 
19:40	40.1	36.6	40.1	94	38.5	5	10	112	0.00	29.833 
19:45	40.1	37.4	40.1	94	38.5	4	9	112	0.00	29.823 
19:50	40.1	40.1	40.1	94	38.5	3	6	112	0.00	29.823 
19:55	40.1	40.1	40.1	93	38.2	3	6	112	0.00	29.823 
20:00	40.1	40.1	40.1	94	38.5	3	6	112	0.00	29.826 
20:05	40.1	40.1	40.1	93	38.2	2	7	112	0.00	29.826 
20:10	40.1	40.1	40.1	93	38.2	3	6	90	0.00	29.826 
20:15	39.9	39.9	39.9	93	38.0	3	6	112	0.00	29.810 
20:20	39.8	37.1	39.8	93	37.9	4	8	90	0.00	29.810 
20:25	39.6	36.9	39.6	94	38.0	4	7	90	0.00	29.810 
20:30	39.6	39.6	39.6	94	38.0	3	7	112	0.00	29.794 
20:35	39.8	37.1	39.8	94	38.2	4	7	112	0.00	29.794 
20:40	39.8	39.8	39.8	94	38.2	3	7	90	0.00	29.794 
20:45	39.8	39.8	39.8	94	38.2	3	7	90	0.00	29.789 
20:50	39.8	39.8	39.8	94	38.2	3	6	112	0.00	29.789 
20:55	39.8	39.8	39.8	94	38.2	2	4	112	0.00	29.789 
21:00	39.9	39.9	39.9	94	38.3	2	5	112	0.00	29.787 
21:05	39.9	39.9	39.9	94	38.3	2	5	135	0.00	29.787 
21:10	39.9	39.9	39.9	94	38.3	2	5	112	0.00	29.787 
21:15	40.1	40.1	40.1	94	38.5	3	6	90	0.00	29.767 
21:20	40.1	40.1	40.1	94	38.5	3	4	112	0.00	29.767 
21:25	39.9	39.9	39.9	94	38.3	2	6	112	0.00	29.767 
21:30	39.8	39.8	39.8	94	38.2	2	5	90	0.00	29.760 
21:35	39.8	39.8	39.8	94	38.2	2	5	112	0.00	29.760 
21:40	39.8	39.8	39.8	94	38.2	2	5	90	0.00	29.760 
21:45	39.8	39.8	39.8	94	38.2	2	5	90	0.00	29.760 
21:50	39.9	39.9	39.9	95	38.6	2	4	112	0.00	29.760 
21:55	39.9	39.9	39.9	95	38.6	2	5	90	0.00	29.760 
22:00	39.9	39.9	39.9	94	38.3	2	3	90	0.00	29.761 
22:05	39.9	39.9	39.9	94	38.3	2	4	90	0.00	29.761 
22:10	39.8	39.8	39.8	94	38.2	1	4	90	0.00	29.761 
22:15	39.8	39.8	39.8	94	38.2	2	4	90	0.00	29.760 
22:20	39.8	39.8	39.8	95	38.5	2	3	90	0.00	29.760 
22:25	39.8	39.8	39.8	95	38.5	2	5	90	0.00	29.760 
22:30	39.6	39.6	39.6	94	38.0	2	4	112	0.00	29.749 
22:35	39.5	39.5	39.5	94	37.9	1	3	112	0.00	29.749 
22:40	39.3	39.3	39.3	95	38.0	1	4	112	0.00	29.749 
22:45	39.3	39.3	39.3	95	38.0	2	5	112	0.00	29.743 
22:50	39.3	39.3	39.3	95	38.0	2	5	90	0.00	29.743 
22:55	39.3	39.3	39.3	95	38.0	3	5	112	0.00	29.743 
23:00	39.2	39.2	39.2	95	37.9	2	5	90	0.00	29.727 
23:05	39.2	39.2	39.2	95	37.9	1	4	90	0.00	29.727 
23:10	39.3	39.3	39.3	95	38.0	2	4	90	0.00	29.727 
23:15	39.5	39.5	39.5	95	38.2	2	5	112	0.00	29.714 
23:20	39.5	39.5	39.5	95	38.2	3	5	112	0.00	29.714 
23:25	39.5	39.5	39.5	95	38.2	2	5	112	0.00	29.714 
23:30	39.5	39.5	39.5	95	38.2	2	4	112	0.00	29.700 
23:35	39.3	39.3	39.3	95	38.0	1	4	90	0.00	29.700 
23:40	39.1	39.1	39.1	95	37.8	1	4	90	0.00	29.700 
23:45	38.9	38.9	38.9	95	37.6	1	4	112	0.00	29.699 
23:50	38.9	38.9	38.9	95	37.6	2	4	112	0.00	29.699 
23:55	38.9	38.9	38.9	95	37.6	2	4	90	0.00	29.699 

CoCoRaHS
IN-AL-39
A2 Web Hosting
Creative Commons License
GoDaddy
search engine by freefind advanced

loaded 2018-12-19 10:21:40 • last modified 2010-11-18 10:43:29
Privacy PolicyDisclaimer
• wx.awcolley.com is powered by PmWiki v.2002016 •
• all content (unless otherwise noted) © 2018 A W Colley